createdAt,value
2022-12-22T00:01:50.207Z,3.38
2022-12-22T00:04:20.516Z,3.33
2022-12-22T00:06:50.356Z,3.28
2022-12-22T00:09:19.834Z,3.23
2022-12-22T00:11:49.903Z,3.17
2022-12-22T00:14:19.582Z,3.07
2022-12-22T00:16:53.980Z,3.01
2022-12-22T00:19:31.576Z,2.92
2022-12-22T00:22:01.486Z,2.85
2022-12-22T00:24:31.295Z,2.77
2022-12-22T00:27:02.462Z,2.68
2022-12-22T00:29:35.772Z,2.62
2022-12-22T00:32:06.093Z,2.54
2022-12-22T00:34:40.127Z,2.49
2022-12-22T00:37:09.842Z,2.43
2022-12-22T00:39:39.492Z,2.37
2022-12-22T00:42:08.769Z,2.34
2022-12-22T00:44:38.601Z,2.27
2022-12-22T00:47:08.473Z,2.22
2022-12-22T00:49:39.354Z,2.16
2022-12-22T00:52:08.971Z,2.10
2022-12-22T00:54:39.877Z,2.05
2022-12-22T00:57:10.175Z,2.01
2022-12-22T00:59:39.733Z,1.95
2022-12-22T01:02:09.693Z,1.89
2022-12-22T01:04:39.239Z,1.84
2022-12-22T01:07:09.080Z,1.79
2022-12-22T01:09:40.181Z,1.75
2022-12-22T01:12:09.664Z,1.72
2022-12-22T01:14:39.262Z,1.69
2022-12-22T01:17:09.062Z,1.65
2022-12-22T01:19:38.662Z,1.62
2022-12-22T01:22:08.516Z,1.59
2022-12-22T01:24:38.935Z,1.56
2022-12-22T01:27:08.629Z,1.51
2022-12-22T01:29:37.868Z,1.46
2022-12-22T01:32:07.324Z,1.43
2022-12-22T01:34:37.268Z,1.40
2022-12-22T01:37:07.029Z,1.38
2022-12-22T01:39:36.737Z,1.36
2022-12-22T01:42:06.353Z,1.34
2022-12-22T01:44:38.575Z,1.31
2022-12-22T01:47:09.756Z,1.26
2022-12-22T01:49:42.899Z,1.23
2022-12-22T01:52:12.714Z,1.19
2022-12-22T01:54:42.419Z,1.16
2022-12-22T01:57:12.379Z,1.12
2022-12-22T01:59:42.616Z,1.08
2022-12-22T02:02:12.093Z,1.04
2022-12-22T02:04:46.155Z,0.99
2022-12-22T02:07:24.199Z,0.95
2022-12-22T02:10:02.945Z,0.91
2022-12-22T02:12:42.096Z,0.89
2022-12-22T02:15:21.620Z,0.86
2022-12-22T02:17:57.903Z,0.84
2022-12-22T02:20:51.344Z,0.83
2022-12-22T02:23:25.821Z,0.79
2022-12-22T02:26:01.767Z,0.76
2022-12-22T02:28:32.777Z,0.73
2022-12-22T02:31:02.610Z,0.70
2022-12-22T02:33:32.324Z,0.66
2022-12-22T02:36:12.937Z,0.63
2022-12-22T02:38:53.214Z,0.60
2022-12-22T02:41:33.409Z,0.56
2022-12-22T02:44:20.696Z,0.54
2022-12-22T02:46:57.586Z,0.54
2022-12-22T02:49:35.079Z,0.51
2022-12-22T02:52:10.313Z,0.50
2022-12-22T02:54:41.841Z,0.49
2022-12-22T02:57:11.692Z,0.46
2022-12-22T02:59:41.406Z,0.43
2022-12-22T03:02:11.077Z,0.41
2022-12-22T03:04:40.992Z,0.38
2022-12-22T03:07:10.560Z,0.36
2022-12-22T03:09:40.462Z,0.32
2022-12-22T03:12:10.324Z,0.28
2022-12-22T03:14:39.847Z,0.25
2022-12-22T03:17:09.359Z,0.20
2022-12-22T03:19:38.931Z,0.17
2022-12-22T03:22:08.469Z,0.16
2022-12-22T03:24:38.146Z,0.13
2022-12-22T03:26:51.378Z,0.11
2022-12-22T03:29:04.832Z,0.09
2022-12-22T03:31:19.139Z,0.07
2022-12-22T03:33:33.329Z,0.06
2022-12-22T03:35:47.617Z,0.05
2022-12-22T03:38:04.631Z,0.04
2022-12-22T03:40:18.510Z,0.04
2022-12-22T03:42:53.580Z,0.02
2022-12-22T03:45:23.287Z,0.01
2022-12-22T03:47:36.828Z,0.01
2022-12-22T03:49:50.059Z,-0.00
2022-12-22T03:52:03.293Z,-0.03
2022-12-22T03:54:18.243Z,-0.04
2022-12-22T03:56:31.610Z,-0.03
2022-12-22T03:58:44.848Z,-0.04
2022-12-22T04:01:07.900Z,-0.03
2022-12-22T04:03:21.327Z,-0.02
2022-12-22T04:05:34.647Z,-0.04
2022-12-22T04:07:47.932Z,-0.04
2022-12-22T04:10:17.728Z,-0.05
2022-12-22T04:12:47.675Z,-0.08
2022-12-22T04:15:00.886Z,-0.09
2022-12-22T04:17:14.187Z,-0.10
2022-12-22T04:19:27.849Z,-0.10
2022-12-22T04:21:41.303Z,-0.11
2022-12-22T04:23:54.545Z,-0.13
2022-12-22T04:26:08.142Z,-0.14
2022-12-22T04:28:21.479Z,-0.15
2022-12-22T04:30:34.834Z,-0.16
2022-12-22T04:32:48.191Z,-0.16
2022-12-22T04:35:01.533Z,-0.16
2022-12-22T04:37:17.464Z,-0.15
2022-12-22T04:39:30.868Z,-0.15
2022-12-22T04:41:44.089Z,-0.15
2022-12-22T04:43:57.445Z,-0.16
2022-12-22T04:46:11.152Z,-0.18
2022-12-22T04:48:25.023Z,-0.19
2022-12-22T04:50:38.294Z,-0.20
2022-12-22T04:52:51.780Z,-0.20
2022-12-22T04:55:05.315Z,-0.22
2022-12-22T04:57:18.670Z,-0.23
2022-12-22T04:59:32.104Z,-0.23
2022-12-22T05:01:45.434Z,-0.24
2022-12-22T05:03:59.032Z,-0.23
2022-12-22T05:06:13.053Z,-0.22
2022-12-22T05:08:26.360Z,-0.21
2022-12-22T05:10:40.112Z,-0.22
2022-12-22T05:12:59.341Z,-0.22
2022-12-22T05:15:13.776Z,-0.24
2022-12-22T05:17:27.037Z,-0.23
2022-12-22T05:19:40.324Z,-0.24
2022-12-22T05:21:53.511Z,-0.25
2022-12-22T05:24:06.877Z,-0.26
2022-12-22T05:26:20.915Z,-0.26
2022-12-22T05:28:34.247Z,-0.25
2022-12-22T05:30:49.146Z,-0.26
2022-12-22T05:33:02.560Z,-0.25
2022-12-22T05:35:16.507Z,-0.24
2022-12-22T05:37:31.239Z,-0.24
2022-12-22T05:39:44.520Z,-0.23
2022-12-22T05:41:57.796Z,-0.23
2022-12-22T05:44:11.374Z,-0.24
2022-12-22T05:46:25.394Z,-0.27
2022-12-22T05:48:39.813Z,-0.30
2022-12-22T05:50:53.596Z,-0.31
2022-12-22T05:53:07.646Z,-0.31
2022-12-22T05:55:21.461Z,-0.32
2022-12-22T05:57:34.703Z,-0.34
2022-12-22T05:59:47.995Z,-0.35
2022-12-22T06:02:01.399Z,-0.37
2022-12-22T06:04:14.798Z,-0.38
2022-12-22T06:06:28.144Z,-0.41
2022-12-22T06:08:41.436Z,-0.44
2022-12-22T06:10:56.931Z,-0.45
2022-12-22T06:13:10.133Z,-0.47
2022-12-22T06:15:23.548Z,-0.49
2022-12-22T06:17:42.341Z,-0.51
2022-12-22T06:19:57.753Z,-0.51
2022-12-22T06:22:12.077Z,-0.50
2022-12-22T06:24:25.254Z,-0.51
2022-12-22T06:26:38.576Z,-0.51
2022-12-22T06:28:51.869Z,-0.51
2022-12-22T06:31:05.211Z,-0.53
2022-12-22T06:33:18.475Z,-0.53
2022-12-22T06:35:31.859Z,-0.53
2022-12-22T06:37:45.214Z,-0.54
2022-12-22T06:39:58.789Z,-0.56
2022-12-22T06:42:29.358Z,-0.57
2022-12-22T06:44:42.671Z,-0.57
2022-12-22T06:46:55.995Z,-0.57
2022-12-22T06:49:09.471Z,-0.57
2022-12-22T06:51:22.575Z,-0.57
2022-12-22T06:53:35.927Z,-0.57
2022-12-22T06:55:49.508Z,-0.58
2022-12-22T06:58:03.433Z,-0.59
2022-12-22T07:00:18.224Z,-0.61
2022-12-22T07:02:31.734Z,-0.63
2022-12-22T07:04:45.061Z,-0.65
2022-12-22T07:06:58.388Z,-0.65
2022-12-22T07:09:11.714Z,-0.66
2022-12-22T07:11:24.981Z,-0.67
2022-12-22T07:13:38.975Z,-0.69
2022-12-22T07:15:59.540Z,-0.70
2022-12-22T07:18:14.202Z,-0.71
2022-12-22T07:20:27.499Z,-0.73
2022-12-22T07:22:41.287Z,-0.74
2022-12-22T07:24:54.557Z,-0.74
2022-12-22T07:27:08.402Z,-0.74
2022-12-22T07:29:21.710Z,-0.74
2022-12-22T07:31:34.919Z,-0.74
2022-12-22T07:33:48.187Z,-0.75
2022-12-22T07:36:13.950Z,-0.76
2022-12-22T07:38:27.171Z,-0.78
2022-12-22T07:40:42.429Z,-0.78
2022-12-22T07:42:59.190Z,-0.79
2022-12-22T07:45:14.809Z,-0.79
2022-12-22T07:47:33.368Z,-0.78
2022-12-22T07:50:04.553Z,-0.80
2022-12-22T07:52:17.790Z,-0.80
2022-12-22T07:54:35.222Z,-0.82
2022-12-22T07:56:51.840Z,-0.83
2022-12-22T07:59:05.474Z,-0.85
2022-12-22T08:01:18.953Z,-0.88
2022-12-22T08:03:32.322Z,-0.91
2022-12-22T08:05:46.803Z,-0.94
2022-12-22T08:08:00.235Z,-0.95
2022-12-22T08:10:15.176Z,-0.97
2022-12-22T08:12:28.673Z,-1.00
2022-12-22T08:14:42.376Z,-1.02
2022-12-22T08:16:55.833Z,-1.05
2022-12-22T08:19:09.210Z,-1.06
2022-12-22T08:21:22.810Z,-1.08
2022-12-22T08:23:36.500Z,-1.10
2022-12-22T08:25:52.371Z,-1.12
2022-12-22T08:28:06.578Z,-1.14
2022-12-22T08:30:21.539Z,-1.16
2022-12-22T08:32:35.292Z,-1.18
2022-12-22T08:34:50.411Z,-1.21
2022-12-22T08:37:06.444Z,-1.24
2022-12-22T08:39:20.779Z,-1.26
2022-12-22T08:41:51.245Z,-1.27
2022-12-22T08:44:04.681Z,-1.28
2022-12-22T08:46:18.194Z,-1.29
2022-12-22T08:48:31.473Z,-1.30
2022-12-22T08:50:44.741Z,-1.31
2022-12-22T08:53:04.948Z,-1.32
2022-12-22T08:55:18.426Z,-1.34
2022-12-22T08:57:31.772Z,-1.35
2022-12-22T08:59:45.076Z,-1.36
2022-12-22T09:01:58.422Z,-1.37
2022-12-22T09:04:12.231Z,-1.39
2022-12-22T09:06:27.749Z,-1.41
2022-12-22T09:08:42.086Z,-1.43
2022-12-22T09:11:12.173Z,-1.45
2022-12-22T09:13:25.591Z,-1.46
2022-12-22T09:15:40.073Z,-1.47
2022-12-22T09:17:53.502Z,-1.48
2022-12-22T09:20:07.543Z,-1.49
2022-12-22T09:22:27.931Z,-1.51
2022-12-22T09:24:42.358Z,-1.53
2022-12-22T09:26:55.629Z,-1.55
2022-12-22T09:29:09.197Z,-1.56
2022-12-22T09:31:22.772Z,-1.56
2022-12-22T09:33:37.519Z,-1.56
2022-12-22T09:35:50.845Z,-1.58
2022-12-22T09:38:04.106Z,-1.60
2022-12-22T09:40:22.768Z,-1.61
2022-12-22T09:42:37.994Z,-1.62
2022-12-22T09:44:54.537Z,-1.63
2022-12-22T09:47:14.436Z,-1.64
2022-12-22T09:49:28.925Z,-1.67
2022-12-22T09:51:47.813Z,-1.68
2022-12-22T09:54:04.316Z,-1.72
2022-12-22T09:56:21.153Z,-1.74
2022-12-22T09:58:36.981Z,-1.74
2022-12-22T10:00:53.949Z,-1.76
2022-12-22T10:03:15.971Z,-1.78
2022-12-22T10:05:39.654Z,-1.80
2022-12-22T10:07:52.860Z,-1.81
2022-12-22T10:10:11.949Z,-1.82
2022-12-22T10:12:28.417Z,-1.83
2022-12-22T10:14:45.843Z,-1.85
2022-12-22T10:17:24.188Z,-1.86
2022-12-22T10:19:38.011Z,-1.86
2022-12-22T10:21:51.419Z,-1.88
2022-12-22T10:24:17.749Z,-1.88
2022-12-22T10:26:33.060Z,-1.89
2022-12-22T10:28:51.166Z,-1.90
2022-12-22T10:31:21.833Z,-1.90
2022-12-22T10:33:46.182Z,-1.89
2022-12-22T10:36:01.901Z,-1.89
2022-12-22T10:38:25.680Z,-1.89
2022-12-22T10:40:47.003Z,-1.89
2022-12-22T10:43:03.187Z,-1.89
2022-12-22T10:45:24.889Z,-1.91
2022-12-22T10:47:38.995Z,-1.90
2022-12-22T10:52:22.532Z,-1.91
2022-12-22T10:54:42.492Z,-1.92
2022-12-22T10:57:07.047Z,-1.93
2022-12-22T10:59:25.279Z,-1.93
2022-12-22T11:01:40.338Z,-1.94
2022-12-22T11:03:54.050Z,-1.94
2022-12-22T11:06:14.817Z,-1.94
2022-12-22T11:08:28.512Z,-1.95
2022-12-22T11:10:46.224Z,-1.94
2022-12-22T11:13:23.261Z,-1.94
2022-12-22T11:15:44.435Z,-1.95
2022-12-22T11:18:05.402Z,-1.93
2022-12-22T11:20:48.399Z,-1.93
2022-12-22T11:23:11.621Z,-1.94
2022-12-22T11:25:33.364Z,-1.95
2022-12-22T11:27:54.856Z,-1.96
2022-12-22T11:30:22.338Z,-1.96
2022-12-22T11:32:53.283Z,-1.96
2022-12-22T11:35:13.161Z,-1.97
2022-12-22T11:37:39.814Z,-1.97
2022-12-22T11:40:01.877Z,-1.99
2022-12-22T11:42:28.672Z,-1.99
2022-12-22T11:45:00.671Z,-2.01
2022-12-22T11:47:26.782Z,-2.02
2022-12-22T11:49:56.620Z,-2.01
2022-12-22T11:52:44.821Z,-2.01
2022-12-22T11:55:15.000Z,-2.00
2022-12-22T11:57:38.155Z,-2.00
2022-12-22T12:00:02.800Z,-1.99
2022-12-22T12:02:43.767Z,-1.99
2022-12-22T12:05:26.622Z,-1.98
2022-12-22T12:07:44.830Z,-1.98
2022-12-22T12:10:10.458Z,-1.99
2022-12-22T12:12:29.897Z,-2.01
2022-12-22T12:14:50.837Z,-2.00
2022-12-22T12:17:09.520Z,-2.00
2022-12-22T12:19:49.438Z,-2.00
2022-12-22T12:22:08.264Z,-2.02
2022-12-22T12:24:44.476Z,-2.03
2022-12-22T12:27:05.969Z,-2.06
2022-12-22T12:29:23.175Z,-2.09
2022-12-22T12:31:39.797Z,-2.09
2022-12-22T12:33:56.707Z,-2.08
2022-12-22T12:36:17.883Z,-2.06
2022-12-22T12:39:06.743Z,-2.05
2022-12-22T12:41:24.647Z,-2.04
2022-12-22T12:43:38.507Z,-2.03
2022-12-22T12:45:52.688Z,-2.02
2022-12-22T12:48:43.587Z,-2.00
2022-12-22T12:50:57.797Z,-2.00
2022-12-22T12:53:13.117Z,-2.00
2022-12-22T12:55:36.296Z,-2.01
2022-12-22T12:57:54.995Z,-2.01
2022-12-22T13:00:09.063Z,-2.01
2022-12-22T13:02:59.315Z,-2.01
2022-12-22T13:05:37.923Z,-2.00
2022-12-22T13:08:17.591Z,-1.98
2022-12-22T13:10:31.500Z,-1.98
2022-12-22T13:12:55.625Z,-1.97
2022-12-22T13:15:21.702Z,-1.98
2022-12-22T13:17:52.187Z,-1.98
2022-12-22T13:20:05.700Z,-1.98
2022-12-22T13:22:19.193Z,-1.97
2022-12-22T13:24:49.387Z,-1.96
2022-12-22T13:27:08.845Z,-1.94
2022-12-22T13:29:27.346Z,-1.93
2022-12-22T13:31:45.180Z,-1.92
2022-12-22T13:34:11.027Z,-1.92
2022-12-22T13:36:27.879Z,-1.92
2022-12-22T13:38:41.871Z,-1.93
2022-12-22T13:40:55.505Z,-1.92
2022-12-22T13:43:15.022Z,-1.92
2022-12-22T13:45:42.245Z,-1.91
2022-12-22T13:47:56.205Z,-1.91
2022-12-22T13:50:13.255Z,-1.92
2022-12-22T13:52:27.115Z,-1.93
2022-12-22T13:54:42.347Z,-1.93
2022-12-22T13:56:57.873Z,-1.93
2022-12-22T13:59:21.211Z,-1.93
2022-12-22T14:01:34.830Z,-1.93
2022-12-22T14:04:02.363Z,-1.93
2022-12-22T14:06:30.608Z,-1.93
2022-12-22T14:08:43.988Z,-1.94
2022-12-22T14:10:58.997Z,-1.93
2022-12-22T14:13:18.974Z,-1.94
2022-12-22T14:15:32.231Z,-1.93
2022-12-22T14:17:53.396Z,-1.92
2022-12-22T14:20:16.362Z,-1.91
2022-12-22T14:22:28.051Z,-1.91
2022-12-22T14:24:45.535Z,-1.91
2022-12-22T14:26:59.218Z,-1.91
2022-12-22T14:29:18.434Z,-1.91
2022-12-22T14:31:31.755Z,-1.90
2022-12-22T14:33:54.371Z,-1.91
2022-12-22T14:36:25.121Z,-1.91
2022-12-22T14:38:45.161Z,-1.91
2022-12-22T14:40:59.173Z,-1.90
2022-12-22T14:43:24.895Z,-1.90
2022-12-22T14:45:39.659Z,-1.89
2022-12-22T14:47:53.283Z,-1.89
2022-12-22T14:50:17.571Z,-1.89
2022-12-22T14:52:36.540Z,-1.89
2022-12-22T14:54:53.257Z,-1.89
2022-12-22T14:57:16.676Z,-1.90
2022-12-22T14:59:34.335Z,-1.90
2022-12-22T15:02:04.206Z,-1.89
2022-12-22T15:04:24.658Z,-1.89
2022-12-22T15:06:44.978Z,-1.89
2022-12-22T15:09:12.874Z,-1.88
2022-12-22T15:11:27.911Z,-1.87
2022-12-22T15:13:42.588Z,-1.86
2022-12-22T15:15:56.224Z,-1.86
2022-12-22T15:18:09.658Z,-1.87
2022-12-22T15:20:25.609Z,-1.86
2022-12-22T15:22:38.956Z,-1.87
2022-12-22T15:24:52.196Z,-1.87
2022-12-22T15:27:05.785Z,-1.86
2022-12-22T15:29:19.599Z,-1.86
2022-12-22T15:31:33.082Z,-1.87
2022-12-22T15:33:46.963Z,-1.89
2022-12-22T15:36:00.283Z,-1.90
2022-12-22T15:38:19.072Z,-1.91
2022-12-22T15:40:33.717Z,-1.92
2022-12-22T15:42:47.691Z,-1.93
2022-12-22T15:45:01.075Z,-1.93
2022-12-22T15:47:16.711Z,-1.93
2022-12-22T15:49:32.911Z,-1.94
2022-12-22T15:51:47.088Z,-1.93
2022-12-22T15:54:01.803Z,-1.94
2022-12-22T15:56:21.417Z,-1.95
2022-12-22T15:58:39.908Z,-1.94
2022-12-22T16:00:53.397Z,-1.95
2022-12-22T16:03:07.157Z,-1.95
2022-12-22T16:05:21.692Z,-1.95
2022-12-22T16:07:36.157Z,-1.96
2022-12-22T16:09:51.487Z,-1.95
2022-12-22T16:12:05.038Z,-1.94
2022-12-22T16:14:20.357Z,-1.93
2022-12-22T16:16:33.632Z,-1.93
2022-12-22T16:18:47.019Z,-1.91
2022-12-22T16:21:01.859Z,-1.89
2022-12-22T16:23:21.524Z,-1.89
2022-12-22T16:25:38.608Z,-1.88
2022-12-22T16:27:54.395Z,-1.87
2022-12-22T16:30:08.308Z,-1.86
2022-12-22T16:32:29.137Z,-1.85
2022-12-22T16:34:42.584Z,-1.84
2022-12-22T16:36:56.021Z,-1.84
2022-12-22T16:39:09.430Z,-1.82
2022-12-22T16:41:31.255Z,-1.81
2022-12-22T16:46:20.909Z,-1.80
2022-12-22T16:48:38.937Z,-1.79
2022-12-22T16:50:52.804Z,-1.78
2022-12-22T16:53:07.521Z,-1.77
2022-12-22T16:55:24.088Z,-1.75
2022-12-22T16:57:37.394Z,-1.73
2022-12-22T16:59:50.783Z,-1.71
2022-12-22T17:02:04.674Z,-1.68
2022-12-22T17:04:22.914Z,-1.66
2022-12-22T17:06:36.550Z,-1.65
2022-12-22T17:08:50.384Z,-1.64
2022-12-22T17:11:10.515Z,-1.63
2022-12-22T17:13:25.212Z,-1.61
2022-12-22T17:15:38.594Z,-1.59
2022-12-22T17:17:51.848Z,-1.57
2022-12-22T17:20:05.223Z,-1.55
2022-12-22T17:22:29.010Z,-1.52
2022-12-22T17:24:43.092Z,-1.49
2022-12-22T17:26:56.586Z,-1.46
2022-12-22T17:29:10.663Z,-1.44
2022-12-22T17:31:26.284Z,-1.42
2022-12-22T17:33:39.535Z,-1.39
2022-12-22T17:35:53.802Z,-1.35
2022-12-22T17:38:07.247Z,-1.33
2022-12-22T17:40:24.087Z,-1.30
2022-12-22T17:42:37.619Z,-1.28
2022-12-22T17:44:51.726Z,-1.27
2022-12-22T17:47:04.923Z,-1.26
2022-12-22T17:49:21.041Z,-1.24
2022-12-22T17:51:35.193Z,-1.23
2022-12-22T17:53:49.635Z,-1.21
2022-12-22T17:56:08.625Z,-1.19
2022-12-22T17:58:23.604Z,-1.17
2022-12-22T18:00:37.383Z,-1.14
2022-12-22T18:02:51.329Z,-1.13
2022-12-22T18:05:05.182Z,-1.12
2022-12-22T18:07:20.497Z,-1.09
2022-12-22T18:09:33.899Z,-1.05
2022-12-22T18:11:47.441Z,-1.03
2022-12-22T18:14:02.177Z,-0.99
2022-12-22T18:16:20.241Z,-0.94
2022-12-22T18:18:34.040Z,-0.89
2022-12-22T18:21:06.421Z,-0.83
2022-12-22T18:23:26.690Z,-0.77
2022-12-22T18:25:39.964Z,-0.72
2022-12-22T18:27:53.568Z,-0.66
2022-12-22T18:30:11.907Z,-0.60
2022-12-22T18:32:27.692Z,-0.56
2022-12-22T18:34:42.358Z,-0.52
2022-12-22T18:36:55.882Z,-0.49
2022-12-22T18:39:16.632Z,-0.45
2022-12-22T18:41:33.215Z,-0.43
2022-12-22T18:43:46.462Z,-0.41
2022-12-22T18:45:59.736Z,-0.40
2022-12-22T18:48:13.090Z,-0.38
2022-12-22T18:50:28.154Z,-0.34
2022-12-22T18:52:41.518Z,-0.30
2022-12-22T18:54:55.439Z,-0.25
2022-12-22T18:57:15.183Z,-0.20
2022-12-22T18:59:33.684Z,-0.17
2022-12-22T19:01:47.142Z,-0.14
2022-12-22T19:04:01.513Z,-0.09
2022-12-22T19:06:15.880Z,-0.06
2022-12-22T19:08:32.370Z,-0.05
2022-12-22T19:10:48.363Z,-0.03
2022-12-22T19:13:03.183Z,0.01
2022-12-22T19:15:27.431Z,0.03
2022-12-22T19:17:40.783Z,0.05
2022-12-22T19:19:54.152Z,0.07
2022-12-22T19:22:07.370Z,0.09
2022-12-22T19:24:21.125Z,0.11
2022-12-22T19:26:34.389Z,0.14
2022-12-22T19:28:48.787Z,0.16
2022-12-22T19:31:02.772Z,0.17
2022-12-22T19:33:26.297Z,0.20
2022-12-22T19:35:39.636Z,0.23
2022-12-22T19:37:54.144Z,0.24
2022-12-22T19:40:07.715Z,0.27
2022-12-22T19:42:24.474Z,0.28
2022-12-22T19:44:37.836Z,0.30
2022-12-22T19:46:51.422Z,0.32
2022-12-22T19:49:04.838Z,0.34
2022-12-22T19:51:18.265Z,0.35
2022-12-22T19:53:31.410Z,0.36
2022-12-22T19:55:50.325Z,0.37
2022-12-22T19:58:04.045Z,0.37
2022-12-22T20:00:26.562Z,0.38
2022-12-22T20:02:40.218Z,0.40
2022-12-22T20:04:54.039Z,0.42
2022-12-22T20:07:08.958Z,0.43
2022-12-22T20:09:22.320Z,0.45
2022-12-22T20:11:36.472Z,0.47
2022-12-22T20:13:50.504Z,0.49
2022-12-22T20:16:05.162Z,0.50
2022-12-22T20:18:24.974Z,0.51
2022-12-22T20:20:40.780Z,0.52
2022-12-22T20:22:55.965Z,0.53
2022-12-22T20:25:09.823Z,0.57
2022-12-22T20:27:28.419Z,0.59
2022-12-22T20:29:41.918Z,0.62
2022-12-22T20:31:55.280Z,0.64
2022-12-22T20:34:08.777Z,0.66
2022-12-22T20:36:27.503Z,0.68
2022-12-22T20:38:42.593Z,0.70
2022-12-22T20:40:56.928Z,0.73
2022-12-22T20:43:14.664Z,0.76
2022-12-22T20:45:30.955Z,0.81
2022-12-22T20:47:44.837Z,0.84
2022-12-22T20:49:58.091Z,0.87
2022-12-22T20:52:17.128Z,0.92
2022-12-22T20:54:30.700Z,0.96
2022-12-22T20:56:44.857Z,1.00
2022-12-22T20:58:58.830Z,1.03
2022-12-22T21:01:12.142Z,1.06
2022-12-22T21:03:25.501Z,1.07
2022-12-22T21:05:39.071Z,1.10
2022-12-22T21:07:52.896Z,1.12
2022-12-22T21:10:06.217Z,1.13
2022-12-22T21:12:19.471Z,1.13
2022-12-22T21:14:32.673Z,1.15
2022-12-22T21:16:46.591Z,1.16
2022-12-22T21:19:00.850Z,1.16
2022-12-22T21:21:15.936Z,1.14
2022-12-22T21:23:29.115Z,1.13
2022-12-22T21:25:46.684Z,1.13
2022-12-22T21:28:00.544Z,1.13
2022-12-22T21:30:22.317Z,1.15
2022-12-22T21:32:35.743Z,1.16
2022-12-22T21:34:49.132Z,1.16
2022-12-22T21:37:05.718Z,1.17
2022-12-22T21:39:27.086Z,1.19
2022-12-22T21:41:56.958Z,1.20
2022-12-22T21:44:13.730Z,1.23
2022-12-22T21:46:27.238Z,1.25
2022-12-22T21:48:40.953Z,1.28
2022-12-22T21:50:54.954Z,1.32
2022-12-22T21:53:08.600Z,1.33
2022-12-22T21:55:27.958Z,1.34
2022-12-22T21:57:41.543Z,1.35
2022-12-22T21:59:54.809Z,1.34
2022-12-22T22:02:09.994Z,1.35
2022-12-22T22:04:23.332Z,1.34
2022-12-22T22:06:36.890Z,1.35
2022-12-22T22:08:50.091Z,1.36
2022-12-22T22:11:04.778Z,1.38
2022-12-22T22:13:19.855Z,1.42
2022-12-22T22:15:34.838Z,1.45
2022-12-22T22:17:48.787Z,1.50
2022-12-22T22:20:02.280Z,1.56
2022-12-22T22:22:15.666Z,1.60
2022-12-22T22:24:29.162Z,1.66
2022-12-22T22:26:42.517Z,1.70
2022-12-22T22:28:58.905Z,1.77
2022-12-22T22:31:17.729Z,1.82
2022-12-22T22:33:31.184Z,1.87
2022-12-22T22:35:45.436Z,1.94
2022-12-22T22:37:58.929Z,2.00
2022-12-22T22:40:16.296Z,2.05
2022-12-22T22:42:29.514Z,2.09
2022-12-22T22:44:42.755Z,2.12
2022-12-22T22:46:56.008Z,2.14
2022-12-22T22:49:09.246Z,2.14
2022-12-22T22:51:22.509Z,2.15
2022-12-22T22:53:35.805Z,2.11
2022-12-22T22:55:49.147Z,2.06
2022-12-22T22:58:02.310Z,2.00
2022-12-22T23:00:18.784Z,1.91
2022-12-22T23:02:32.376Z,1.83
2022-12-22T23:04:45.737Z,1.76
2022-12-22T23:06:59.063Z,1.73
2022-12-22T23:09:13.352Z,1.70
2022-12-22T23:11:27.065Z,1.64
2022-12-22T23:13:40.340Z,1.61
2022-12-22T23:16:01.854Z,1.61
2022-12-22T23:18:15.339Z,1.59
2022-12-22T23:20:29.724Z,1.61
2022-12-22T23:22:43.213Z,1.63
2022-12-22T23:24:56.467Z,1.66
2022-12-22T23:27:10.111Z,1.67
2022-12-22T23:29:23.369Z,1.68
2022-12-22T23:31:37.542Z,1.70
2022-12-22T23:33:51.068Z,1.72
2022-12-22T23:36:04.512Z,1.72
2022-12-22T23:38:18.146Z,1.70
2022-12-22T23:40:51.498Z,1.70
2022-12-22T23:43:04.726Z,1.70
2022-12-22T23:45:18.394Z,1.72
2022-12-22T23:47:31.723Z,1.74
2022-12-22T23:49:45.101Z,1.74
2022-12-22T23:51:58.381Z,1.74
2022-12-22T23:54:11.801Z,1.76
2022-12-22T23:56:25.461Z,1.79
2022-12-22T23:58:38.856Z,1.82
